Home > Products > Valid Products > MTR

000
SAUS44 KLIX 250554
MTRBVE
METAR KBVE 250551Z AUTO 13004KT 10SM CLR 23/22 A3012 RMK AO2 SLP198
T02330217 10261 20233 402780206 58004





000
SAUS44 KLIX 250454
MTRBVE
METAR KBVE 250451Z AUTO 10005KT 10SM CLR 23/22 A3012 RMK AO2 SLP198
T02330217





000
SAUS44 KLIX 250357 COR
MTRBVE
METAR KBVE 250351Z AUTO 12003KT 10SM CLR 23/21 A3013 RMK AO2 SLP203
T02330211





000
SAUS44 KLIX 250353 COR
MTRBVE
METAR KBVE 250351Z AUTO 12003KT 10SM CLR 23/21 A3013 RMK AO2 SLP203
T02330211





000
SAUS44 KLIX 250054
MTRBVE
METAR KBVE 250051Z AUTO 12004KT 10SM CLR 24/22 A3009 RMK AO2 SLP189
T02440217





000
SAUS44 KLIX 242255 COR
MTRBVE
METAR KBVE 242251Z AUTO 12006KT 10SM CLR 27/22 A3008 RMK AO2 SLP185
T02670217





000
SAUS44 KLIX 241855 COR
MTRBVE
METAR KBVE 241851Z AUTO 10009KT 10SM SCT024 27/22 A3011 RMK AO2
SLP194 T02720217





000
SAUS44 KLIX 241853 COR
MTRBVE
METAR KBVE 241851Z AUTO 10009KT 10SM SCT024 27/22 A3011 RMK AO2
SLP194 T02720217





000
SAUS44 KLIX 241654
MTRBVE
METAR KBVE 241651Z AUTO 09008KT 10SM FEW023 28/22 A3011 RMK AO2
SLP195 T02780217





000
SAUS44 KLIX 241454
MTRBVE
METAR KBVE 241451Z AUTO 12006KT 10SM FEW023 26/21 A3010 RMK AO2
SLP192 T02610206 53018





000
SAUS44 KLIX 241254
MTRBVE
METAR KBVE 241251Z AUTO 09004KT 10SM CLR 24/21 A3006 RMK AO2 SLP179
T02390211





000
SAUS44 KLIX 241152
MTRBVE
METAR KBVE 241151Z AUTO 09003KT 10SM FEW002 22/20 A3005 RMK AO2
SLP174 T02220200 10222 20206 51009





000
SAUS44 KLIX 240854
MTRBVE
METAR KBVE 240851Z AUTO 00000KT 10SM CLR 21/19 A3002 RMK AO2 SLP164
T02060194 53004





000
SAUS44 KLIX 240655 COR
MTRBVE
METAR KBVE 240651Z AUTO 12003KT 10SM CLR 22/19 A3000 RMK AO2 SLP159
T02170189





000
SAUS44 KLIX 240553
MTRBVE
METAR KBVE 240551Z AUTO 11004KT 10SM CLR 22/19 A3001 RMK AO2 SLP160
T02170189 10256 20217 402780217 50003





000
SAUS44 KLIX 240354
MTRBVE
METAR KBVE 240351Z AUTO 12004KT 10SM CLR 22/19 A3001 RMK AO2 SLP161
T02220189





000
SAUS44 KLIX 240057 COR
MTRBVE
METAR KBVE 240051Z AUTO 09004KT 10SM CLR 24/19 A2997 RMK AO2 SLP147
T02390189





000
SAUS44 KLIX 240055 COR
MTRBVE
METAR KBVE 240051Z AUTO 09004KT 10SM CLR 24/19 A2997 RMK AO2 SLP147
T02390189





000
SAUS44 KLIX 232352
MTRBVE
METAR KBVE 232351Z AUTO 10005KT 10SM CLR 26/18 A2996 RMK AO2 SLP146
T02560183 10278 20256 55005





000
SAUS44 KLIX 232054
MTRBVE
METAR KBVE 232051Z AUTO 05007KT 10SM CLR 27/18 A2998 RMK AO2 SLP151
T02720183 58008





000
SAUS44 KLIX 231857 COR
MTRBVE
METAR KBVE 231851Z AUTO 06008KT 10SM CLR 27/18 A3000 RMK AO2 SLP159
T02720183





000
SAUS44 KLIX 231855 COR
MTRBVE
METAR KBVE 231851Z AUTO 06008KT 10SM CLR 27/18 A3000 RMK AO2 SLP159
T02720183





000
SAUS44 KLIX 231452
MTRBVE
METAR KBVE 231451Z AUTO 10008KT 10SM CLR 26/17 A3000 RMK AO2 SLP159
T02610167 51004





000
SAUS44 KLIX 231256 COR
MTRBVE
METAR KBVE 231251Z AUTO 10005KT 10SM CLR 24/18 A3000 RMK AO2 SLP158
T02390183





000
SAUS44 KLIX 231255 COR
MTRBVE
METAR KBVE 231251Z AUTO 10005KT 10SM CLR 24/18 A3000 RMK AO2 SLP158
T02390183





000
SAUS44 KLIX 231254
MTRBVE
METAR KBVE 231251Z AUTO 10005KT 10SM CLR 24/18 A3000 RMK AO2 SLP158
T02390183





000
SAUS44 KLIX 231154
MTRBVE
METAR KBVE 231151Z AUTO 09004KT 10SM CLR 23/18 A2999 RMK AO2 SLP155
T02280178 10228 20217 53014





000
SAUS44 KLIX 230654
MTRBVE
METAR KBVE 230651Z AUTO 11003KT 10SM CLR 22/19 A2995 RMK AO2 SLP143
T02220194





000
SAUS44 KLIX 230554
MTRBVE
METAR KBVE 230551Z AUTO 00000KT 10SM CLR 23/19 A2997 RMK AO2 SLP147
T02280194 10250 20228 402670228 51004





000
SAUS44 KLIX 230354
MTRBVE
METAR KBVE 230351Z AUTO 08003KT 10SM CLR 23/21 A2996 RMK AO2 SLP145
T02280206





000
SAUS44 KLIX 230254
MTRBVE
METAR KBVE 230251Z AUTO 07003KT 10SM CLR 23/20 A2995 RMK AO2 SLP143
T02280200 53004





000
SAUS44 KLIX 230154
MTRBVE
METAR KBVE 230151Z AUTO 13003KT 10SM CLR 23/20 A2995 RMK AO2 SLP141
T02330200





000
SAUS44 KLIX 230052
MTRBVE
METAR KBVE 230051Z AUTO 00000KT 10SM CLR 24/20 A2995 RMK AO2 SLP140
T02390200





000
SAUS44 KLIX 222352
MTRBVE
METAR KBVE 222351Z AUTO 05004KT 10SM CLR 25/20 A2994 RMK AO2 SLP139
T02500200 10261 20250 55011





000
SAUS44 KLIX 222054
MTRBVE
METAR KBVE 222051Z AUTO 07005KT 10SM BKN040 26/19 A2997 RMK AO2
SLP150 T02560194 58016





000
SAUS44 KLIX 221756 COR
MTRBVE
METAR KBVE 221751Z AUTO 06006KT 10SM CLR 26/20 A3002 RMK AO2 SLP166
T02560200 10267 20239 51005





000
SAUS44 KLIX 221654
MTRBVE
METAR KBVE 221651Z AUTO 07008KT 10SM CLR 26/20 A3002 RMK AO2 SLP166
T02560200





000
SAUS44 KLIX 221454
MTRBVE
METAR KBVE 221451Z AUTO 05009KT 10SM FEW029 25/21 A3001 RMK AO2
SLP161 T02500211 53005





000
SAUS44 KLIX 221252
MTRBVE
METAR KBVE 221251Z AUTO 00000KT 10SM SCT014 SCT021 BKN035 24/21
A3000 RMK AO2 SLP159 T02390211





000
SAUS44 KLIX 221249
MTRBVE
SPECI KBVE 221248Z AUTO 00000KT 10SM SCT014 SCT020 BKN035 24/21
A3000 RMK AO2





000
SAUS44 KLIX 221243
MTRBVE
SPECI KBVE 221242Z AUTO 32003KT 10SM BKN014 BKN020 OVC035 24/21
A3000 RMK AO2 T02440206





000
SAUS44 KLIX 221220
MTRBVE
SPECI KBVE 221219Z AUTO 23003KT 10SM FEW014 BKN021 OVC120 24/22
A3001 RMK AO2 T02440217





000
SAUS44 KLIX 221149 COR
MTRBVE
METAR KBVE 221146Z AUTO 21003KT 10SM SCT013 SCT022 BKN041 24/19
A2999 RMK AO2 RAE44 SLP156 P0003 60005 70005 T02390189 10256 20233
50000





000
SAUS44 KLIX 221147 COR
MTRBVE
METAR KBVE 221146Z AUTO 21003KT 10SM SCT013 SCT022 BKN041 24/19
A2999 RMK AO2 RAE44 SLP156 P0003 60005 70005 T02390189 10256 20233
50000





000
SAUS44 KLIX 221105 COR
MTRBVE
SPECI KBVE 221103Z AUTO 00000KT 5SM -RA BR BKN010 BKN047 OVC120
24/23 A3000 RMK AO2 P0003 T02440233





000
SAUS44 KLIX 221104
MTRBVE
SPECI KBVE 221103Z AUTO 00000KT 5SM -RA BR BKN010 BKN047 OVC120
24/23 A3000 RMK AO2 P0003 T02440233





    US Dept of Commerce
    National Oceanic and Atmospheric Administration
    National Weather Service
    1325 East West Highway
    Silver Spring, MD 20910
    Page Author: NWS Internet Services Team
Disclaimer
Information Quality
Credits
Glossary
Privacy Policy
Freedom of Information Act (FOIA)
About Us
Career Opportunities